createdAt,value
2023-02-07T00:01:50.550Z,100.00
2023-02-07T00:04:21.325Z,100.00
2023-02-07T00:07:15.986Z,100.00
2023-02-07T00:10:02.561Z,100.00
2023-02-07T00:12:34.235Z,100.00
2023-02-07T00:15:09.873Z,100.00
2023-02-07T00:17:36.187Z,100.00
2023-02-07T00:20:13.047Z,100.00
2023-02-07T00:22:39.460Z,100.00
2023-02-07T00:25:05.953Z,100.00
2023-02-07T00:27:45.170Z,100.00
2023-02-07T00:30:20.847Z,100.00
2023-02-07T00:32:48.975Z,100.00
2023-02-07T00:35:18.906Z,100.00
2023-02-07T00:38:10.828Z,100.00
2023-02-07T00:40:49.322Z,100.00
2023-02-07T00:43:29.827Z,100.00
2023-02-07T00:45:57.716Z,100.00
2023-02-07T00:48:26.280Z,100.00
2023-02-07T00:50:52.584Z,100.00
2023-02-07T00:53:33.752Z,100.00
2023-02-07T00:56:21.797Z,100.00
2023-02-07T00:58:51.094Z,100.00
2023-02-07T01:01:20.695Z,100.00
2023-02-07T01:03:51.237Z,100.00
2023-02-07T01:06:37.053Z,100.00
2023-02-07T01:09:03.920Z,100.00
2023-02-07T01:11:37.009Z,100.00
2023-02-07T01:14:03.393Z,100.00
2023-02-07T01:16:34.059Z,100.00
2023-02-07T01:19:05.299Z,100.00
2023-02-07T01:21:32.885Z,100.00
2023-02-07T01:24:01.579Z,100.00
2023-02-07T01:26:27.884Z,100.00
2023-02-07T01:28:56.820Z,100.00
2023-02-07T01:31:25.548Z,100.00
2023-02-07T01:33:57.935Z,100.00
2023-02-07T01:36:35.741Z,100.00
2023-02-07T01:39:03.776Z,100.00
2023-02-07T01:41:34.489Z,100.00
2023-02-07T01:44:09.751Z,100.00
2023-02-07T01:46:43.511Z,100.00
2023-02-07T01:49:10.266Z,100.00
2023-02-07T01:51:44.635Z,100.00
2023-02-07T01:54:14.316Z,100.00
2023-02-07T01:56:46.180Z,100.00
2023-02-07T01:59:12.491Z,100.00
2023-02-07T02:01:45.681Z,100.00
2023-02-07T02:04:23.568Z,100.00
2023-02-07T02:06:49.896Z,100.00
2023-02-07T02:09:16.513Z,100.00
2023-02-07T02:12:13.985Z,100.00
2023-02-07T02:14:46.358Z,100.00
2023-02-07T02:20:14.322Z,100.00
2023-02-07T02:22:43.184Z,100.00
2023-02-07T02:25:18.437Z,100.00
2023-02-07T02:27:47.250Z,100.00
2023-02-07T02:30:45.641Z,100.00
2023-02-07T02:33:29.221Z,100.00
2023-02-07T02:36:21.834Z,100.00
2023-02-07T02:38:55.618Z,100.00
2023-02-07T02:41:23.423Z,100.00
2023-02-07T02:43:49.756Z,100.00
2023-02-07T02:46:34.650Z,100.00
2023-02-07T02:49:07.764Z,100.00
2023-02-07T02:51:34.079Z,100.00
2023-02-07T02:54:10.907Z,100.00
2023-02-07T02:56:49.421Z,100.00
2023-02-07T02:59:18.741Z,100.00
2023-02-07T03:01:45.074Z,100.00
2023-02-07T03:04:17.802Z,100.00
2023-02-07T03:06:53.483Z,100.00
2023-02-07T03:09:21.153Z,100.00
2023-02-07T03:11:55.848Z,100.00
2023-02-07T03:14:25.676Z,100.00
2023-02-07T03:16:57.981Z,100.00
2023-02-07T03:19:25.687Z,100.00
2023-02-07T03:21:54.095Z,100.00
2023-02-07T03:24:24.381Z,100.00
2023-02-07T03:26:51.289Z,100.00
2023-02-07T03:29:23.002Z,100.00
2023-02-07T03:31:58.170Z,100.00
2023-02-07T03:34:25.699Z,100.00
2023-02-07T03:36:56.795Z,100.00
2023-02-07T03:39:23.112Z,100.00
2023-02-07T03:41:57.309Z,100.00
2023-02-07T03:44:23.846Z,100.00
2023-02-07T03:46:57.217Z,100.00
2023-02-07T03:49:23.575Z,100.00
2023-02-07T03:51:50.306Z,100.00
2023-02-07T03:54:16.633Z,100.00
2023-02-07T03:56:42.957Z,100.00
2023-02-07T03:59:09.389Z,100.00
2023-02-07T04:02:00.096Z,100.00
2023-02-07T04:04:26.697Z,100.00
2023-02-07T04:06:58.639Z,100.00
2023-02-07T04:09:31.749Z,100.00
2023-02-07T04:11:58.052Z,100.00
2023-02-07T04:14:34.359Z,100.00
2023-02-07T04:17:08.245Z,100.00
2023-02-07T04:19:34.534Z,100.00
2023-02-07T04:22:12.571Z,100.00
2023-02-07T04:24:38.931Z,100.00
2023-02-07T04:27:10.631Z,100.00
2023-02-07T04:29:38.157Z,100.00
2023-02-07T04:32:04.575Z,100.00
2023-02-07T04:34:30.927Z,100.00
2023-02-07T04:36:57.376Z,100.00
2023-02-07T04:39:34.096Z,100.00
2023-02-07T04:42:00.750Z,100.00
2023-02-07T04:44:27.941Z,100.00
2023-02-07T04:46:56.784Z,100.00
2023-02-07T04:49:27.354Z,100.00
2023-02-07T04:51:53.661Z,100.00
2023-02-07T04:54:19.930Z,100.00
2023-02-07T04:56:46.258Z,100.00
2023-02-07T04:59:12.558Z,100.00
2023-02-07T05:01:38.859Z,100.00
2023-02-07T05:04:17.148Z,100.00
2023-02-07T05:06:48.639Z,100.00
2023-02-07T05:09:22.365Z,100.00
2023-02-07T05:11:58.023Z,100.00
2023-02-07T05:14:34.581Z,100.00
2023-02-07T05:17:02.114Z,100.00
2023-02-07T05:19:28.521Z,100.00
2023-02-07T05:22:01.570Z,100.00
2023-02-07T05:24:42.713Z,100.00
2023-02-07T05:27:09.371Z,100.00
2023-02-07T05:29:46.176Z,100.00
2023-02-07T05:32:33.317Z,100.00
2023-02-07T05:35:00.924Z,100.00
2023-02-07T05:37:34.187Z,100.00
2023-02-07T05:40:10.436Z,100.00
2023-02-07T05:42:45.291Z,100.00
2023-02-07T05:45:20.933Z,100.00
2023-02-07T05:48:12.147Z,100.00
2023-02-07T05:50:46.397Z,100.00
2023-02-07T05:53:21.738Z,100.00
2023-02-07T05:55:55.112Z,100.00
2023-02-07T05:58:50.578Z,100.00
2023-02-07T06:01:35.923Z,100.00
2023-02-07T06:04:19.264Z,100.00
2023-02-07T06:06:58.010Z,100.00
2023-02-07T06:09:40.232Z,100.00
2023-02-07T06:12:06.753Z,100.00
2023-02-07T06:14:33.390Z,100.00
2023-02-07T06:19:39.921Z,100.00
2023-02-07T06:22:08.976Z,100.00
2023-02-07T06:27:17.307Z,100.00
2023-02-07T06:29:46.087Z,100.00
2023-02-07T06:32:19.876Z,100.00
2023-02-07T06:34:46.148Z,100.00
2023-02-07T06:37:32.863Z,100.00
2023-02-07T06:45:22.740Z,100.00
2023-02-07T06:47:54.031Z,100.00
2023-02-07T06:53:09.944Z,100.00
2023-02-07T06:55:57.163Z,100.00
2023-02-07T06:58:23.847Z,100.00
2023-02-07T07:01:07.781Z,100.00
2023-02-07T07:03:34.120Z,100.00
2023-02-07T07:06:20.872Z,100.00
2023-02-07T07:08:54.198Z,100.00
2023-02-07T07:11:31.120Z,100.00
2023-02-07T07:14:00.825Z,100.00
2023-02-07T07:16:30.273Z,100.00
2023-02-07T07:18:56.581Z,100.00
2023-02-07T07:21:52.981Z,100.00
2023-02-07T07:24:20.088Z,100.00
2023-02-07T07:26:49.881Z,100.00
2023-02-07T07:31:57.257Z,100.00
2023-02-07T07:34:25.867Z,100.00
2023-02-07T07:36:59.725Z,100.00
2023-02-07T07:39:26.040Z,100.00
2023-02-07T07:42:22.057Z,100.00
2023-02-07T07:44:58.864Z,100.00
2023-02-07T07:47:27.216Z,100.00
2023-02-07T07:49:53.536Z,100.00
2023-02-07T07:52:19.871Z,100.00
2023-02-07T07:54:46.241Z,100.00
2023-02-07T07:57:12.559Z,100.00
2023-02-07T07:59:38.849Z,100.00
2023-02-07T08:02:05.178Z,100.00
2023-02-07T08:04:31.475Z,100.00
2023-02-07T08:06:57.929Z,100.00
2023-02-07T08:09:24.286Z,100.00
2023-02-07T08:11:50.711Z,100.00
2023-02-07T08:14:17.013Z,100.00
2023-02-07T08:16:43.409Z,100.00
2023-02-07T08:19:09.697Z,100.00
2023-02-07T08:21:36.264Z,100.00
2023-02-07T08:24:02.612Z,100.00
2023-02-07T08:26:28.925Z,100.00
2023-02-07T08:28:55.256Z,100.00
2023-02-07T08:31:21.674Z,100.00
2023-02-07T08:33:48.111Z,100.00
2023-02-07T08:36:14.401Z,100.00
2023-02-07T08:38:40.718Z,100.00
2023-02-07T08:41:07.108Z,100.00
2023-02-07T08:43:33.538Z,100.00
2023-02-07T08:46:00.654Z,100.00
2023-02-07T08:48:27.201Z,100.00
2023-02-07T08:50:53.495Z,100.00
2023-02-07T08:53:19.793Z,100.00
2023-02-07T08:55:46.182Z,100.00
2023-02-07T08:58:12.540Z,100.00
2023-02-07T09:00:39.156Z,100.00
2023-02-07T09:03:05.587Z,100.00
2023-02-07T09:05:33.586Z,100.00
2023-02-07T09:08:00.473Z,100.00
2023-02-07T09:10:26.782Z,100.00
2023-02-07T09:12:53.142Z,100.00
2023-02-07T09:15:19.478Z,100.00
2023-02-07T09:17:46.083Z,100.00
2023-02-07T09:20:12.485Z,100.00
2023-02-07T09:22:57.635Z,100.00
2023-02-07T09:25:24.318Z,100.00
2023-02-07T09:27:51.303Z,100.00
2023-02-07T09:30:17.699Z,100.00
2023-02-07T09:32:44.130Z,100.00
2023-02-07T09:35:10.914Z,100.00
2023-02-07T09:37:48.930Z,100.00
2023-02-07T09:40:18.967Z,100.00
2023-02-07T09:42:49.098Z,100.00
2023-02-07T09:45:22.934Z,100.00
2023-02-07T09:47:50.886Z,100.00
2023-02-07T09:50:21.508Z,100.00
2023-02-07T09:52:49.331Z,100.00
2023-02-07T09:55:26.032Z,100.00
2023-02-07T09:57:56.425Z,100.00
2023-02-07T10:00:27.122Z,100.00
2023-02-07T10:03:02.734Z,100.00
2023-02-07T10:05:32.466Z,100.00
2023-02-07T10:07:58.780Z,100.00
2023-02-07T10:10:32.605Z,100.00
2023-02-07T10:13:02.282Z,100.00
2023-02-07T10:15:28.544Z,100.00
2023-02-07T10:18:15.832Z,100.00
2023-02-07T10:21:00.940Z,100.00
2023-02-07T10:23:45.657Z,100.00
2023-02-07T10:26:12.073Z,100.00
2023-02-07T10:28:47.611Z,100.00
2023-02-07T10:31:16.438Z,100.00
2023-02-07T10:33:51.073Z,100.00
2023-02-07T10:36:18.233Z,100.00
2023-02-07T10:39:08.404Z,100.00
2023-02-07T10:41:39.688Z,100.00
2023-02-07T10:44:06.868Z,100.00
2023-02-07T10:46:33.555Z,100.00
2023-02-07T10:49:00.126Z,100.00
2023-02-07T10:51:31.403Z,100.00
2023-02-07T10:54:01.958Z,100.00
2023-02-07T10:56:28.531Z,100.00
2023-02-07T10:58:58.751Z,100.00
2023-02-07T11:01:25.989Z,100.00
2023-02-07T11:03:52.454Z,100.00
2023-02-07T11:06:26.338Z,100.00
2023-02-07T11:09:06.680Z,100.00
2023-02-07T11:11:33.188Z,100.00
2023-02-07T11:14:03.966Z,100.00
2023-02-07T11:16:30.257Z,100.00
2023-02-07T11:19:00.594Z,100.00
2023-02-07T11:21:32.897Z,100.00
2023-02-07T11:24:06.576Z,100.00
2023-02-07T11:26:33.443Z,100.00
2023-02-07T11:29:06.271Z,100.00
2023-02-07T11:31:35.055Z,100.00
2023-02-07T11:34:08.528Z,100.00
2023-02-07T11:36:34.889Z,100.00
2023-02-07T11:39:01.215Z,98.23
2023-02-07T11:41:29.278Z,97.68
2023-02-07T11:43:59.910Z,85.74
2023-02-07T11:46:32.362Z,81.13
2023-02-07T11:48:58.927Z,74.15
2023-02-07T11:51:25.380Z,86.41
2023-02-07T11:54:05.252Z,86.51
2023-02-07T11:56:41.911Z,100.00
2023-02-07T11:59:15.405Z,80.75
2023-02-07T12:01:41.897Z,80.57
2023-02-07T12:04:12.954Z,72.96
2023-02-07T12:06:43.976Z,69.74
2023-02-07T12:09:21.161Z,67.70
2023-02-07T12:11:47.597Z,70.34
2023-02-07T12:14:19.836Z,57.55
2023-02-07T12:16:50.067Z,59.42
2023-02-07T12:19:20.567Z,61.25
2023-02-07T12:21:57.177Z,56.35
2023-02-07T12:24:29.601Z,56.15
2023-02-07T12:26:59.967Z,56.11
2023-02-07T12:29:44.613Z,55.86
2023-02-07T12:32:23.393Z,56.22
2023-02-07T12:34:55.320Z,52.51
2023-02-07T12:37:25.560Z,51.75
2023-02-07T12:39:58.318Z,51.85
2023-02-07T12:42:37.029Z,50.68
2023-02-07T12:45:04.541Z,54.44
2023-02-07T12:47:33.911Z,50.98
2023-02-07T12:50:06.228Z,51.75
2023-02-07T12:52:43.385Z,53.06
2023-02-07T12:55:12.797Z,52.04
2023-02-07T12:57:39.069Z,49.53
2023-02-07T13:00:14.470Z,50.53
2023-02-07T13:02:55.100Z,51.45
2023-02-07T13:05:40.821Z,50.38
2023-02-07T13:08:17.684Z,50.09
2023-02-07T13:10:50.034Z,49.93
2023-02-07T13:13:25.601Z,50.51
2023-02-07T13:16:00.272Z,54.17
2023-02-07T13:18:44.474Z,53.09
2023-02-07T13:21:28.089Z,53.08
2023-02-07T13:23:56.895Z,55.12
2023-02-07T13:26:26.170Z,55.05
2023-02-07T13:28:59.337Z,55.17
2023-02-07T13:31:37.643Z,52.70
2023-02-07T13:34:04.049Z,54.11
2023-02-07T13:36:30.297Z,53.64
2023-02-07T13:39:19.042Z,54.74
2023-02-07T13:41:55.062Z,51.79
2023-02-07T13:44:24.457Z,52.26
2023-02-07T13:46:56.395Z,54.80
2023-02-07T13:49:22.722Z,54.51
2023-02-07T13:51:52.119Z,53.23
2023-02-07T13:54:24.423Z,54.14
2023-02-07T13:57:18.956Z,53.53
2023-02-07T14:00:05.268Z,51.47
2023-02-07T14:02:35.937Z,51.32
2023-02-07T14:05:07.120Z,51.02
2023-02-07T14:07:35.569Z,51.13
2023-02-07T14:10:02.255Z,50.56
2023-02-07T14:12:29.072Z,51.77
2023-02-07T14:15:02.574Z,50.12
2023-02-07T14:17:30.293Z,49.94
2023-02-07T14:19:57.138Z,49.20
2023-02-07T14:22:23.525Z,49.87
2023-02-07T14:24:59.028Z,48.92
2023-02-07T14:27:32.540Z,49.17
2023-02-07T14:30:14.101Z,50.53
2023-02-07T14:32:44.301Z,50.70
2023-02-07T14:35:16.721Z,52.10
2023-02-07T14:37:46.388Z,52.31
2023-02-07T14:40:31.432Z,51.31
2023-02-07T14:42:59.379Z,51.82
2023-02-07T14:45:27.966Z,50.75
2023-02-07T14:47:54.329Z,52.98
2023-02-07T14:50:21.941Z,53.99
2023-02-07T14:52:48.247Z,53.61
2023-02-07T14:55:15.963Z,56.46
2023-02-07T14:58:01.561Z,55.79
2023-02-07T15:00:38.272Z,55.27
2023-02-07T15:03:12.355Z,55.41
2023-02-07T15:05:39.583Z,57.29
2023-02-07T15:08:07.714Z,56.48
2023-02-07T15:10:35.078Z,55.94
2023-02-07T15:13:01.651Z,54.81
2023-02-07T15:15:28.894Z,56.30
2023-02-07T15:17:56.467Z,58.06
2023-02-07T15:20:28.358Z,57.95
2023-02-07T15:22:54.885Z,61.04
2023-02-07T15:25:21.234Z,59.39
2023-02-07T15:28:05.569Z,57.96
2023-02-07T15:30:32.958Z,57.42
2023-02-07T15:32:59.392Z,57.02
2023-02-07T15:35:31.090Z,56.94
2023-02-07T15:38:13.681Z,57.34
2023-02-07T15:40:40.381Z,55.59
2023-02-07T15:43:19.465Z,56.66
2023-02-07T15:45:51.330Z,56.42
2023-02-07T15:48:17.658Z,54.99
2023-02-07T15:50:46.275Z,57.88
2023-02-07T15:53:16.455Z,57.66
2023-02-07T15:55:43.392Z,59.31
2023-02-07T15:58:15.444Z,62.28
2023-02-07T16:00:42.009Z,66.06
2023-02-07T16:03:12.862Z,68.02
2023-02-07T16:05:39.500Z,78.45
2023-02-07T16:08:06.975Z,93.44
2023-02-07T16:10:37.653Z,100.00
2023-02-07T16:13:11.764Z,100.00
2023-02-07T16:15:38.752Z,100.00
2023-02-07T16:18:05.496Z,100.00
2023-02-07T16:20:33.564Z,100.00
2023-02-07T16:23:00.657Z,100.00
2023-02-07T16:25:28.120Z,100.00
2023-02-07T16:27:54.606Z,100.00
2023-02-07T16:30:23.292Z,100.00
2023-02-07T16:32:49.674Z,100.00
2023-02-07T16:35:17.368Z,100.00
2023-02-07T16:37:43.755Z,100.00
2023-02-07T16:40:13.116Z,100.00
2023-02-07T16:42:39.436Z,100.00
2023-02-07T16:45:05.955Z,100.00
2023-02-07T16:47:32.382Z,100.00
2023-02-07T16:49:58.685Z,100.00
2023-02-07T16:52:25.148Z,100.00
2023-02-07T16:54:51.484Z,100.00
2023-02-07T16:57:17.834Z,100.00
2023-02-07T16:59:44.277Z,100.00
2023-02-07T17:02:15.064Z,100.00
2023-02-07T17:04:41.486Z,100.00
2023-02-07T17:07:09.758Z,100.00
2023-02-07T17:09:36.051Z,100.00
2023-02-07T17:12:02.458Z,100.00
2023-02-07T17:14:29.484Z,100.00
2023-02-07T17:16:56.053Z,100.00
2023-02-07T17:19:27.783Z,100.00
2023-02-07T17:21:54.189Z,100.00
2023-02-07T17:24:20.617Z,100.00
2023-02-07T17:26:47.694Z,100.00
2023-02-07T17:29:16.797Z,100.00
2023-02-07T17:31:43.356Z,100.00
2023-02-07T17:34:09.779Z,100.00
2023-02-07T17:36:36.133Z,100.00
2023-02-07T17:39:02.610Z,100.00
2023-02-07T17:41:29.125Z,100.00
2023-02-07T17:43:55.436Z,100.00
2023-02-07T17:46:25.601Z,100.00
2023-02-07T17:48:52.304Z,100.00
2023-02-07T17:51:19.717Z,100.00
2023-02-07T17:53:46.329Z,100.00
2023-02-07T17:56:16.779Z,100.00
2023-02-07T17:58:43.060Z,100.00
2023-02-07T18:01:09.383Z,100.00
2023-02-07T18:03:35.701Z,100.00
2023-02-07T18:06:02.115Z,100.00
2023-02-07T18:08:28.517Z,100.00
2023-02-07T18:10:55.716Z,100.00
2023-02-07T18:13:22.134Z,100.00
2023-02-07T18:15:48.568Z,100.00
2023-02-07T18:18:16.406Z,100.00
2023-02-07T18:20:42.772Z,100.00
2023-02-07T18:23:11.357Z,100.00
2023-02-07T18:25:37.674Z,100.00
2023-02-07T18:28:03.996Z,100.00
2023-02-07T18:30:30.983Z,100.00
2023-02-07T18:32:58.072Z,100.00
2023-02-07T18:35:24.446Z,100.00
2023-02-07T18:37:51.076Z,100.00
2023-02-07T18:40:17.463Z,100.00
2023-02-07T18:42:43.864Z,100.00
2023-02-07T18:45:10.266Z,100.00
2023-02-07T18:47:36.640Z,100.00
2023-02-07T18:50:03.047Z,100.00
2023-02-07T18:52:29.715Z,100.00
2023-02-07T18:54:56.033Z,100.00
2023-02-07T18:57:22.311Z,100.00
2023-02-07T18:59:48.575Z,100.00
2023-02-07T19:02:14.966Z,100.00
2023-02-07T19:04:41.443Z,100.00
2023-02-07T19:07:07.796Z,100.00
2023-02-07T19:09:34.114Z,100.00
2023-02-07T19:12:00.581Z,100.00
2023-02-07T19:14:28.207Z,100.00
2023-02-07T19:16:55.890Z,100.00
2023-02-07T19:19:27.501Z,100.00
2023-02-07T19:21:54.151Z,100.00
2023-02-07T19:24:20.760Z,100.00
2023-02-07T19:26:47.859Z,100.00
2023-02-07T19:29:15.514Z,100.00
2023-02-07T19:31:43.470Z,100.00
2023-02-07T19:34:10.753Z,100.00
2023-02-07T19:36:37.408Z,100.00
2023-02-07T19:39:04.419Z,100.00
2023-02-07T19:41:31.096Z,100.00
2023-02-07T19:43:57.754Z,100.00
2023-02-07T19:46:24.181Z,100.00
2023-02-07T19:48:50.672Z,100.00
2023-02-07T19:51:21.673Z,100.00
2023-02-07T19:53:49.843Z,100.00
2023-02-07T19:56:16.171Z,100.00
2023-02-07T19:58:44.114Z,100.00
2023-02-07T20:01:10.451Z,100.00
2023-02-07T20:03:38.309Z,100.00
2023-02-07T20:06:05.641Z,100.00
2023-02-07T20:08:35.717Z,100.00
2023-02-07T20:11:09.255Z,100.00
2023-02-07T20:13:35.990Z,100.00
2023-02-07T20:16:09.718Z,100.00
2023-02-07T20:18:36.058Z,100.00
2023-02-07T20:21:10.818Z,100.00
2023-02-07T20:23:39.011Z,100.00
2023-02-07T20:26:06.645Z,100.00
2023-02-07T20:28:33.573Z,100.00
2023-02-07T20:30:59.989Z,100.00
2023-02-07T20:33:26.697Z,100.00
2023-02-07T20:35:53.178Z,100.00
2023-02-07T20:38:19.505Z,100.00
2023-02-07T20:40:45.912Z,100.00
2023-02-07T20:43:12.256Z,100.00
2023-02-07T20:45:38.550Z,100.00
2023-02-07T20:48:04.984Z,100.00
2023-02-07T20:50:31.296Z,100.00
2023-02-07T20:52:57.709Z,100.00
2023-02-07T20:55:24.821Z,100.00
2023-02-07T20:57:51.118Z,100.00
2023-02-07T21:00:17.483Z,100.00
2023-02-07T21:02:43.815Z,100.00
2023-02-07T21:05:10.221Z,100.00
2023-02-07T21:07:36.639Z,100.00
2023-02-07T21:10:03.102Z,100.00
2023-02-07T21:12:29.409Z,100.00
2023-02-07T21:14:57.188Z,100.00
2023-02-07T21:17:44.024Z,100.00
2023-02-07T21:20:17.829Z,100.00
2023-02-07T21:22:54.048Z,100.00
2023-02-07T21:25:20.431Z,100.00
2023-02-07T21:27:46.729Z,100.00
2023-02-07T21:30:18.034Z,100.00
2023-02-07T21:32:44.663Z,100.00
2023-02-07T21:35:10.956Z,100.00
2023-02-07T21:37:37.267Z,100.00
2023-02-07T21:40:18.451Z,100.00
2023-02-07T21:43:10.244Z,100.00
2023-02-07T21:45:35.088Z,100.00
2023-02-07T21:48:10.382Z,100.00
2023-02-07T21:50:36.826Z,100.00
2023-02-07T21:53:08.214Z,100.00
2023-02-07T21:55:55.373Z,100.00
2023-02-07T21:58:27.701Z,100.00
2023-02-07T22:00:56.466Z,100.00
2023-02-07T22:03:30.353Z,100.00
2023-02-07T22:05:56.648Z,100.00
2023-02-07T22:08:22.976Z,100.00
2023-02-07T22:10:49.301Z,100.00
2023-02-07T22:13:44.007Z,100.00
2023-02-07T22:16:19.986Z,100.00
2023-02-07T22:19:40.065Z,100.00
2023-02-07T22:21:45.224Z,100.00
2023-02-07T22:24:14.921Z,100.00
2023-02-07T22:26:42.074Z,100.00
2023-02-07T22:29:10.751Z,100.00
2023-02-07T22:31:42.695Z,100.00
2023-02-07T22:34:14.008Z,100.00
2023-02-07T22:36:55.468Z,100.00
2023-02-07T22:39:26.238Z,100.00
2023-02-07T22:41:54.766Z,100.00
2023-02-07T22:44:31.055Z,100.00
2023-02-07T22:46:57.418Z,100.00
2023-02-07T22:49:33.997Z,100.00
2023-02-07T22:52:07.673Z,100.00
2023-02-07T22:54:44.393Z,100.00
2023-02-07T22:57:16.097Z,100.00
2023-02-07T22:59:42.421Z,100.00
2023-02-07T23:02:08.975Z,100.00
2023-02-07T23:04:35.320Z,100.00
2023-02-07T23:07:13.107Z,100.00
2023-02-07T23:09:40.098Z,100.00
2023-02-07T23:12:08.730Z,100.00
2023-02-07T23:14:35.040Z,100.00
2023-02-07T23:17:01.366Z,100.00
2023-02-07T23:19:27.739Z,100.00
2023-02-07T23:21:57.356Z,100.00
2023-02-07T23:24:32.416Z,100.00
2023-02-07T23:27:01.196Z,100.00
2023-02-07T23:29:40.539Z,100.00
2023-02-07T23:32:08.204Z,100.00
2023-02-07T23:34:42.341Z,100.00
2023-02-07T23:37:32.311Z,100.00
2023-02-07T23:40:09.068Z,100.00
2023-02-07T23:42:36.828Z,100.00
2023-02-07T23:45:03.890Z,100.00
2023-02-07T23:47:34.467Z,100.00
2023-02-07T23:50:20.659Z,100.00
2023-02-07T23:52:47.017Z,100.00
2023-02-07T23:55:13.333Z,100.00
2023-02-07T23:57:39.876Z,100.00
